Time;durP1;ratioP1;P1;durP2;ratioP2;P2;SDS_P1;SDS_P2;PMS_P1;PMS_P2;Temp;Humidity;BMP_temperature;BMP_pressure;BME280_temperature;BME280_humidity;BME280_pressure;Samples;Min_cycle;Max_cycle;Signal;HPM_P1;HPM_P2
2020/12/27 00:02:09;;;;;;;20.57;9.45;;;;;;;-0.58;76.86;100595.95;1727412;83;21191;-76
2020/12/27 00:04:37;;;;;;;21.52;10.72;;;;;;;-0.62;76.91;100585.75;1727709;82;21120;-76
2020/12/27 00:07:08;;;;;;;20.43;9.78;;;;;;;-0.65;76.89;100585.48;1727773;81;21609;-76
2020/12/27 00:09:38;;;;;;;20.20;10.53;;;;;;;-0.67;76.90;100580.78;1727541;83;21167;-76
2020/12/27 00:12:05;;;;;;;;;;;;;;;-0.70;76.90;100580.13;1729887;83;21178;-76
2020/12/27 00:14:31;;;;;;;28.38;12.45;;;;;;;-0.75;76.94;100575.20;1729360;81;20570;-76
2020/12/27 00:17:11;;;;;;;27.30;11.35;;;;;;;-0.79;76.95;100565.84;1738533;81;21200;-76
2020/12/27 00:19:38;;;;;;;;;;;;;;;-0.81;76.96;100561.15;1750937;81;21215;-76
2020/12/27 00:22:04;;;;;;;20.92;8.73;;;;;;;-0.83;76.96;100555.19;1736471;81;20548;-76
2020/12/27 00:24:31;;;;;;;25.32;10.82;;;;;;;-0.85;76.97;100551.83;1757902;81;21231;-76
2020/12/27 00:26:57;;;;;;;26.45;9.70;;;;;;;-0.85;76.98;100551.83;1757100;81;21211;-76
2020/12/27 00:29:23;;;;;;;21.42;9.53;;;;;;;-0.85;76.98;100553.60;1756964;81;21104;-76
2020/12/27 00:31:52;;;;;;;29.02;11.90;;;;;;;-0.85;77.00;100541.36;1727981;83;21172;-76
2020/12/27 00:34:18;;;;;;;55.70;18.57;;;;;;;-0.84;77.02;100540.41;1727466;83;21249;-76
2020/12/27 00:36:45;;;;;;;52.93;17.82;;;;;;;-0.81;77.02;100533.66;1735286;81;21648;-75
2020/12/27 00:39:11;;;;;;;39.98;13.20;;;;;;;-0.78;77.04;100528.73;1728116;83;21203;-76
2020/12/27 00:41:38;;;;;;;33.08;11.15;;;;;;;-0.76;77.04;100523.77;1735018;81;21140;-75
2020/12/27 00:44:04;;;;;;;28.42;9.58;;;;;;;-0.71;77.05;100524.33;1758085;81;21203;-76
2020/12/27 00:46:30;;;;;;;26.02;9.73;;;;;;;-0.67;77.06;100519.25;1758431;81;21613;-75
2020/12/27 00:48:57;;;;;;;29.45;10.28;;;;;;;-0.64;77.05;100515.16;1756203;81;21157;-75
2020/12/27 00:51:24;;;;;;;25.20;9.28;;;;;;;-0.58;77.05;100513.45;1752462;81;21182;-75
2020/12/27 00:53:50;;;;;;;40.10;13.45;;;;;;;-0.54;77.07;100512.33;1750380;81;21148;-75
2020/12/27 00:56:17;;;;;;;36.20;10.85;;;;;;;-0.51;77.06;100510.82;1749242;81;22033;-76
2020/12/27 00:58:43;;;;;;;22.93;8.33;;;;;;;-0.45;77.04;100521.36;1751126;82;21159;-76
2020/12/27 01:01:11;;;;;;;21.90;8.08;;;;;;;-0.41;77.03;100508.91;1765337;80;21513;-76
2020/12/27 01:03:37;;;;;;;21.48;8.20;;;;;;;-0.38;77.02;100510.02;1788405;80;21226;-76
2020/12/27 01:06:04;;;;;;;18.95;7.58;;;;;;;-0.38;77.00;100504.78;1771969;80;21593;-75
2020/12/27 01:08:30;;;;;;;22.67;8.10;;;;;;;-0.38;76.99;100510.87;1782377;80;21144;-75
2020/12/27 01:10:59;;;;;;;27.32;11.33;;;;;;;-0.38;76.97;100513.95;1788700;80;21194;-76
2020/12/27 01:13:26;;;;;;;18.42;7.90;;;;;;;-0.38;76.98;100508.71;1767118;80;21128;-75
2020/12/27 01:15:53;;;;;;;24.12;10.20;;;;;;;-0.39;76.97;100508.36;1757210;81;21584;-75
2020/12/27 01:18:19;;;;;;;28.12;9.88;;;;;;;-0.42;76.97;100511.19;1758046;80;21139;-76
2020/12/27 01:20:45;;;;;;;29.42;10.32;;;;;;;-0.44;76.97;100507.80;1757842;80;21255;-76
2020/12/27 01:23:12;;;;;;;25.72;10.08;;;;;;;-0.48;76.96;100491.44;1757155;81;21150;-76
2020/12/27 01:25:38;;;;;;;23.92;10.00;;;;;;;-0.51;76.97;100495.11;1756655;80;21158;-76
2020/12/27 01:28:04;;;;;;;25.27;10.13;;;;;;;-0.52;76.97;100480.78;1762618;80;21520;-76
2020/12/27 01:30:30;;;;;;;20.10;9.20;;;;;;;-0.56;76.96;100467.51;1776516;80;21208;-76
2020/12/27 01:32:57;;;;;;;19.60;9.23;;;;;;;-0.57;76.95;100463.23;1776949;80;21196;-76
2020/12/27 01:35:23;;;;;;;36.75;11.63;;;;;;;-0.58;76.93;100452.38;1764584;80;21064;-77
2020/12/27 01:37:50;;;;;;;23.98;11.08;;;;;;;-0.61;76.94;100449.49;1773027;80;21139;-76
2020/12/27 01:40:16;;;;;;;21.80;10.38;;;;;;;-0.64;76.96;100447.08;1788008;80;21152;-76
2020/12/27 01:42:42;;;;;;;20.77;8.60;;;;;;;-0.66;76.94;100430.61;1764580;80;21103;-77
2020/12/27 01:45:08;;;;;;;21.48;9.73;;;;;;;-0.68;76.95;100428.56;1757143;80;21145;-77
2020/12/27 01:47:35;;;;;;;59.23;18.40;;;;;;;-0.71;76.94;100422.22;1756684;81;21591;-76
2020/12/27 01:50:02;;;;;;;56.23;15.63;;;;;;;-0.75;76.95;100414.66;1733956;81;35042;-76
2020/12/27 01:52:29;;;;;;;56.50;13.85;;;;;;;-0.80;76.96;100414.09;1774103;80;21156;-76
2020/12/27 01:54:55;;;;;;;52.25;11.10;;;;;;;-0.85;76.97;100406.55;1788028;80;21151;-76
2020/12/27 01:57:24;;;;;;;24.50;9.68;;;;;;;-0.89;76.98;100406.37;1787955;80;21209;-76
2020/12/27 01:59:51;;;;;;;18.37;7.10;;;;;;;-0.93;76.97;100410.12;1753224;80;21147;-76
2020/12/27 02:02:18;;;;;;;62.20;22.70;;;;;;;-0.97;76.98;100404.70;1760529;80;21180;-76
2020/12/27 02:04:44;;;;;;;112.40;32.78;;;;;;;-1.03;76.98;100399.86;1755702;80;21075;-76
2020/12/27 02:07:12;;;;;;;38.33;13.38;;;;;;;-1.10;76.98;100390.72;1755732;80;21159;-76
2020/12/27 02:09:39;;;;;;;33.28;10.82;;;;;;;-1.16;77.00;100388.49;1755752;80;21139;-76
2020/12/27 02:12:11;;;;;;;24.27;9.68;;;;;;;-1.22;77.01;100384.92;1769703;80;21131;-76
2020/12/27 02:14:38;;;;;;;23.75;9.58;;;;;;;-1.29;77.02;100374.47;1764626;80;21199;-75
2020/12/27 02:17:05;;;;;;;24.90;10.30;;;;;;;-1.38;77.04;100377.21;1755129;81;21156;-75
2020/12/27 02:19:31;;;;;;;32.95;11.70;;;;;;;-1.45;77.05;100373.77;1755969;80;21131;-75
2020/12/27 02:21:59;;;;;;;25.90;10.32;;;;;;;-1.55;77.06;100372.19;1748808;80;22030;-75
2020/12/27 02:24:25;;;;;;;30.40;10.18;;;;;;;-1.62;77.09;100366.46;1749040;80;21466;-75
2020/12/27 02:26:59;;;;;;;16.70;7.70;;;;;;;-1.63;77.11;100370.50;1748888;82;21100;-76
2020/12/27 02:29:29;;;;;;;19.75;8.25;;;;;;;-1.65;77.13;100373.19;1748691;80;21286;-76
2020/12/27 02:31:56;;;;;;;33.10;11.22;;;;;;;-1.70;77.17;100370.03;1747296;82;21173;-76
2020/12/27 02:34:22;;;;;;;60.45;23.15;;;;;;;-1.72;77.19;100374.50;1761985;80;22088;-76
2020/12/27 02:36:49;;;;;;;71.33;22.07;;;;;;;-1.74;77.19;100355.93;1749301;80;21714;-76
2020/12/27 02:39:17;;;;;;;48.35;15.78;;;;;;;-1.75;77.23;100356.39;1748692;82;21585;-76
2020/12/27 02:41:49;;;;;;;27.82;11.25;;;;;;;-1.76;77.24;100353.89;1751611;80;21156;-76
2020/12/27 02:44:15;;;;;;;25.52;11.38;;;;;;;-1.79;77.29;100347.05;1734332;80;21549;-76
2020/12/27 02:46:41;;;;;;;22.70;10.63;;;;;;;-1.84;77.31;100341.28;1778602;80;21198;-76
2020/12/27 02:49:07;;;;;;;25.62;12.63;;;;;;;-1.90;77.34;100333.80;1778516;80;21188;-76
2020/12/27 02:51:34;;;;;;;32.53;12.80;;;;;;;-1.94;77.37;100331.02;1746538;80;21168;-76
2020/12/27 02:54:00;;;;;;;26.02;12.15;;;;;;;-2.00;77.40;100318.30;1748910;82;21167;-77
2020/12/27 02:56:28;;;;;;;26.55;11.85;;;;;;;-2.02;77.43;100312.34;1724690;83;21587;-76
2020/12/27 02:59:00;;;;;;;19.27;9.65;;;;;;;-2.10;77.46;100303.66;1723624;83;21688;-76
2020/12/27 03:01:27;;;;;;;21.82;9.95;;;;;;;-2.13;77.50;100296.47;1732068;82;21196;-76
2020/12/27 03:03:53;;;;;;;23.27;10.30;;;;;;;-2.17;77.55;100289.28;1743914;82;21577;-76
2020/12/27 03:06:19;;;;;;;34.20;12.65;;;;;;;-2.18;77.56;100294.13;1706047;83;21590;-76
2020/12/27 03:08:54;;;;;;;27.77;11.00;;;;;;;-2.20;77.61;100289.94;1726985;82;21168;-76
2020/12/27 03:11:14;;;;;;;24.02;9.45;;;;;;;-2.21;77.63;100280.41;1731069;82;21452;-76
2020/12/27 03:13:41;;;;;;;22.52;10.75;;;;;;;-2.22;77.65;100282.67;1732132;82;21604;-76
2020/12/27 03:16:07;;;;;;;29.02;10.53;;;;;;;-2.22;77.68;100276.98;1731711;82;21132;-76
2020/12/27 03:18:33;;;;;;;24.23;12.07;;;;;;;-2.20;77.69;100272.96;1738135;82;21143;-76
2020/12/27 03:21:00;;;;;;;44.50;17.60;;;;;;;-2.20;77.73;100276.88;1722663;82;21172;-76
2020/12/27 03:23:26;;;;;;;33.98;13.40;;;;;;;-2.20;77.75;100265.13;1732368;82;21217;-76
2020/12/27 03:25:52;;;;;;;41.45;15.95;;;;;;;-2.18;77.75;100268.50;1732114;82;21175;-76
2020/12/27 03:28:19;;;;;;;34.08;13.93;;;;;;;-2.17;77.80;100271.47;1729216;82;21192;-76
2020/12/27 03:30:45;;;;;;;26.50;12.28;;;;;;;-2.16;77.83;100269.23;1705427;82;21622;-76
2020/12/27 03:33:11;;;;;;;26.75;11.75;;;;;;;-2.17;77.87;100257.09;1703278;82;21171;-76
2020/12/27 03:35:37;;;;;;;28.30;13.38;;;;;;;-2.18;77.91;100261.48;1723612;81;21254;-76
2020/12/27 03:38:04;;;;;;;30.52;12.75;;;;;;;-2.21;77.92;100258.21;1723604;83;21137;-76
2020/12/27 03:40:30;;;;;;;27.22;11.18;;;;;;;-2.19;77.97;100255.06;1723946;82;21209;-76
2020/12/27 03:42:56;;;;;;;18.17;10.03;;;;;;;-2.22;77.99;100246.95;1723472;83;21140;-76
2020/12/27 03:45:23;;;;;;;24.55;11.73;;;;;;;-2.22;78.02;100241.73;1725792;81;21167;-76
2020/12/27 03:47:49;;;;;;;21.37;11.12;;;;;;;-2.21;78.05;100238.62;1723766;81;21195;-76
2020/12/27 03:50:15;;;;;;;24.75;11.60;;;;;;;-2.21;78.08;100236.02;1723587;83;21144;-76
2020/12/27 03:52:41;;;;;;;21.02;10.13;;;;;;;-2.19;78.10;100230.25;1739294;81;21569;-76
2020/12/27 03:55:08;;;;;;;19.98;10.30;;;;;;;-2.20;78.14;100223.34;1753622;81;21782;-76
2020/12/27 03:57:34;;;;;;;21.80;10.78;;;;;;;-2.20;78.17;100223.34;1755204;81;21072;-76
2020/12/27 04:00:03;;;;;;;37.23;15.70;;;;;;;-2.20;78.20;100220.27;1762735;80;21132;-76
2020/12/27 04:02:28;;;;;;;22.37;10.78;;;;;;;-2.19;78.24;100210.20;1780901;80;21231;-76
2020/12/27 04:04:55;;;;;;;59.88;24.02;;;;;;;-2.20;78.26;100207.66;1760163;80;21116;-76
2020/12/27 04:07:22;;;;;;;26.23;12.73;;;;;;;-2.20;78.29;100194.61;1755115;81;21191;-76
2020/12/27 04:09:48;;;;;;;21.57;10.93;;;;;;;-2.23;78.29;100189.58;1780007;80;21156;-76
2020/12/27 04:12:14;;;;;;;21.52;10.10;;;;;;;-2.22;78.34;100194.72;1756185;79;21328;-76
2020/12/27 04:14:40;;;;;;;20.00;11.28;;;;;;;-2.24;78.38;100190.04;1755898;80;21560;-76
2020/12/27 04:17:07;;;;;;;17.98;9.18;;;;;;;-2.24;78.41;100187.89;1756783;81;21107;-76
2020/12/27 04:19:33;;;;;;;16.85;9.88;;;;;;;-2.25;78.43;100177.09;1756939;81;21044;-76
2020/12/27 04:21:59;;;;;;;16.10;9.35;;;;;;;-2.24;78.45;100170.92;1756668;80;21125;-76
2020/12/27 04:24:26;;;;;;;19.12;8.95;;;;;;;-2.24;78.49;100171.76;1756920;81;21723;-76
2020/12/27 04:26:52;;;;;;;18.55;8.70;;;;;;;-2.22;78.52;100165.16;1756679;81;21184;-76
2020/12/27 04:29:18;;;;;;;17.87;9.08;;;;;;;-2.21;78.54;100160.28;1756827;81;21152;-76
2020/12/27 04:31:44;;;;;;;20.20;8.43;;;;;;;-2.21;78.58;100157.20;1756801;81;21142;-76
2020/12/27 04:34:11;;;;;;;19.70;8.55;;;;;;;-2.19;78.58;100154.51;1756963;80;21116;-76
2020/12/27 04:36:37;;;;;;;20.02;9.33;;;;;;;-2.18;78.62;100157.01;1763559;80;22157;-76
2020/12/27 04:39:03;;;;;;;16.42;7.65;;;;;;;-2.14;78.63;100153.73;1748771;80;21565;-76
2020/12/27 04:41:29;;;;;;;16.90;8.85;;;;;;;-2.12;78.67;100140.13;1748703;82;21175;-76
2020/12/27 04:43:56;;;;;;;17.77;8.05;;;;;;;-2.10;78.67;100141.70;1754740;80;21135;-76
2020/12/27 04:46:22;;;;;;;12.47;7.25;;;;;;;-2.08;78.70;100149.00;1788091;80;21143;-76
2020/12/27 04:48:49;;;;;;;19.27;7.65;;;;;;;-2.07;78.73;100143.28;1771355;80;22130;-76
2020/12/27 04:51:15;;;;;;;16.05;8.03;;;;;;;-2.04;78.74;100145.23;1727353;80;21152;-76
2020/12/27 04:53:41;;;;;;;16.80;7.72;;;;;;;-2.02;78.75;100136.00;1769878;80;21609;-76
2020/12/27 04:56:08;;;;;;;16.77;7.90;;;;;;;-2.02;78.76;100145.14;1756732;80;21164;-76
2020/12/27 04:58:34;;;;;;;11.95;6.60;;;;;;;-2.01;78.79;100136.38;1757124;81;21130;-76
2020/12/27 05:01:01;;;;;;;10.95;6.83;;;;;;;-2.02;78.82;100125.09;1757801;80;22112;-76
2020/12/27 05:03:28;;;;;;;15.90;7.35;;;;;;;-1.99;78.82;100112.29;1757197;80;21123;-76
2020/12/27 05:05:56;;;;;;;16.60;6.95;;;;;;;-2.00;78.84;100107.99;1756881;81;21110;-76
2020/12/27 05:08:23;;;;;;;13.15;7.08;;;;;;;-1.99;78.86;100105.76;1763082;80;21106;-76
2020/12/27 05:10:49;;;;;;;14.87;7.55;;;;;;;-1.98;78.87;100100.07;1757225;81;21560;-76
2020/12/27 05:13:16;;;;;;;11.28;6.95;;;;;;;-1.98;78.88;100097.45;1756960;81;21211;-76
2020/12/27 05:15:43;;;;;;;11.08;6.55;;;;;;;-1.98;78.89;100094.84;1757023;81;21156;-76
2020/12/27 05:18:10;;;;;;;14.58;7.55;;;;;;;-1.98;78.89;100087.85;1779236;80;21647;-76
2020/12/27 05:20:37;;;;;;;12.55;6.10;;;;;;;-1.98;78.92;100087.85;1757034;81;21165;-76
2020/12/27 05:23:05;;;;;;;15.65;7.65;;;;;;;-1.98;78.92;100090.47;1757118;80;21276;-76
2020/12/27 05:25:32;;;;;;;11.68;6.28;;;;;;;-1.98;78.95;100085.23;1763588;80;21197;-76
2020/12/27 05:28:10;;;;;;;22.20;8.05;;;;;;;-1.98;78.93;100076.56;1773852;80;21126;-76
2020/12/27 05:30:37;;;;;;;14.63;6.75;;;;;;;-1.97;78.96;100075.14;1757020;81;21131;-76
2020/12/27 05:33:14;;;;;;;16.73;8.48;;;;;;;-1.98;78.97;100063.03;1757040;81;21049;-76
2020/12/27 05:35:41;;;;;;;20.23;7.72;;;;;;;-1.98;78.97;100064.34;1787037;80;21241;-76
2020/12/27 05:38:08;;;;;;;14.47;7.42;;;;;;;-2.01;78.98;100059.31;1760242;80;21202;-76
2020/12/27 05:40:39;;;;;;;15.40;6.83;;;;;;;-2.03;79.00;100051.56;1756927;81;21103;-75
2020/12/27 05:43:14;;;;;;;14.70;7.90;;;;;;;-2.03;79.01;100050.26;1757896;80;21120;-75
2020/12/27 05:45:41;;;;;;;15.38;7.55;;;;;;;-2.03;79.01;100044.19;1757169;81;21599;-76
2020/12/27 05:48:08;;;;;;;14.00;7.17;;;;;;;-2.03;79.01;100051.56;1757263;80;21127;-76
2020/12/27 05:50:42;;;;;;;44.00;19.82;;;;;;;-2.04;79.01;100041.20;1759166;80;21277;-76
2020/12/27 05:53:22;;;;;;;11.83;6.55;;;;;;;-2.05;79.03;100048.69;1760045;80;21617;-76
2020/12/27 05:55:51;;;;;;;15.38;8.33;;;;;;;-2.04;79.03;100047.73;1757087;81;21160;-75
2020/12/27 05:58:23;;;;;;;18.90;7.78;;;;;;;-2.05;79.05;100047.38;1758492;80;21151;-75
2020/12/27 06:00:56;;;;;;;15.48;8.00;;;;;;;-2.07;79.05;100038.33;1756816;80;21122;-76
2020/12/27 06:03:29;;;;;;;118.20;35.90;;;;;;;-2.07;79.05;100038.33;1757440;80;21191;-76
2020/12/27 06:06:08;;;;;;;147.43;48.68;;;;;;;-2.05;79.06;100035.62;1748450;82;21172;-76
2020/12/27 06:09:07;;;;;;;48.42;16.95;;;;;;;-2.06;79.05;100037.86;1750356;80;21092;-76
2020/12/27 06:11:38;;;;;;;80.55;28.00;;;;;;;-2.08;79.06;100034.52;1755384;81;21132;-75
2020/12/27 06:14:19;;;;;;;34.65;13.40;;;;;;;-2.10;79.05;100018.09;1754109;80;21182;-75
2020/12/27 06:16:51;;;;;;;40.25;14.20;;;;;;;-2.11;79.07;100011.22;1756161;80;21211;-76
2020/12/27 06:19:29;;;;;;;34.80;12.47;;;;;;;-2.12;79.07;100006.92;1756614;81;21138;-76
2020/12/27 06:22:08;;;;;;;23.32;8.38;;;;;;;-2.14;79.08;100000.95;1756758;81;21130;-76
2020/12/27 06:24:36;;;;;;;16.77;8.23;;;;;;;-2.14;79.08;99996.56;1757011;81;21488;-76
2020/12/27 06:27:04;;;;;;;38.23;13.03;;;;;;;-2.12;79.09;100000.39;1756785;81;21678;-76
2020/12/27 06:29:43;;;;;;;21.25;8.93;;;;;;;-2.11;79.07;100002.08;1757143;80;22010;-76
2020/12/27 06:32:10;;;;;;;29.12;10.35;;;;;;;-2.12;79.08;99997.78;1755646;80;22857;-76
2020/12/27 06:34:36;;;;;;;12.45;6.22;;;;;;;-2.08;79.08;99997.95;1783069;80;21172;-76
2020/12/27 06:37:07;;;;;;;12.33;6.60;;;;;;;-2.09;79.08;99987.13;1774606;80;21124;-76
2020/12/27 06:39:33;;;;;;;16.50;7.33;;;;;;;-2.06;79.07;99984.31;1748821;80;21548;-76
2020/12/27 06:42:11;;;;;;;10.45;6.12;;;;;;;-2.04;79.07;99978.51;1728982;82;21194;-75
2020/12/27 06:44:41;;;;;;;54.38;15.93;;;;;;;-2.02;79.05;99972.73;1725019;83;21137;-76
2020/12/27 06:47:09;;;;;;;41.68;15.03;;;;;;;-2.02;79.03;99963.59;1770880;80;21580;-76
2020/12/27 06:49:35;;;;;;;82.20;27.17;;;;;;;-2.02;79.05;99956.59;1788002;79;21132;-76
2020/12/27 06:52:21;;;;;;;58.75;21.55;;;;;;;-2.01;79.04;99953.52;1776064;80;21143;-76
2020/12/27 06:54:52;;;;;;;31.42;13.80;;;;;;;-2.00;79.02;99959.09;1756951;81;21596;-76
2020/12/27 07:00:27;;;;;;;15.90;7.47;;;;;;;-1.97;79.01;99927.53;1814786;77;28642;-77
2020/12/27 07:03:20;;;;;;;15.85;7.72;;;;;;;-2.04;79.00;99916.66;1788386;80;21179;-77
2020/12/27 07:05:48;;;;;;;12.70;6.85;;;;;;;-2.05;78.99;99917.62;1788251;79;21253;-77
2020/12/27 07:08:16;;;;;;;16.52;5.85;;;;;;;-2.03;78.97;99915.73;1765008;80;21064;-77
2020/12/27 07:10:46;;;;;;;11.65;5.20;;;;;;;-2.03;78.96;99909.66;1757284;80;20989;-77
2020/12/27 07:13:13;;;;;;;14.53;6.00;;;;;;;-2.01;78.94;99910.41;1764781;80;21132;-77
2020/12/27 07:15:59;;;;;;;19.73;8.53;;;;;;;-1.96;78.93;99903.09;1788360;80;21096;-77
2020/12/27 07:18:27;;;;;;;12.75;5.65;;;;;;;-1.91;78.89;99902.78;1788140;80;21191;-77
2020/12/27 07:20:57;;;;;;;19.27;9.13;;;;;;;-1.89;78.86;99892.59;1788230;80;21908;-77
2020/12/27 07:23:27;;;;;;;51.25;18.32;;;;;;;-1.87;78.85;99888.58;1788230;80;20969;-77
2020/12/27 07:26:01;;;;;;;19.07;8.50;;;;;;;-1.88;78.83;99894.27;1756632;80;21147;-77
2020/12/27 07:28:28;;;;;;;10.50;5.28;;;;;;;-1.88;78.80;99893.43;1787551;80;21167;-77
2020/12/27 07:30:59;;;;;;;23.30;13.18;;;;;;;-1.89;78.78;99879.52;1787971;80;21147;-77
2020/12/27 07:33:36;;;;;;;21.85;12.78;;;;;;;-1.87;78.76;99881.58;1727456;81;21083;-77
2020/12/27 07:36:07;;;;;;;238.20;107.43;;;;;;;-1.83;78.76;99877.79;1755081;81;21123;-77
2020/12/27 07:38:59;;;;;;;145.50;83.78;;;;;;;-1.80;78.72;99875.00;1749331;81;21123;-77
2020/12/27 07:41:36;;;;;;;128.57;71.53;;;;;;;-1.75;78.70;99864.20;1756643;81;21198;-77
2020/12/27 07:44:12;;;;;;;42.15;21.62;;;;;;;-1.71;78.64;99853.45;1756658;81;22115;-77
2020/12/27 07:46:39;;;;;;;51.15;19.98;;;;;;;-1.68;78.59;99844.08;1736652;81;21584;-77
2020/12/27 07:49:11;;;;;;;16.97;9.13;;;;;;;-1.65;78.55;99833.87;1726588;83;21726;-77
2020/12/27 07:51:37;;;;;;;30.50;14.00;;;;;;;-1.62;78.50;99833.69;1732249;80;21166;-77
2020/12/27 07:54:04;;;;;;;13.53;5.78;;;;;;;-1.59;78.47;99836.92;1756885;80;21123;-77
2020/12/27 07:56:31;;;;;;;57.78;20.30;;;;;;;-1.55;78.43;99842.28;1756629;81;22017;-77
2020/12/27 07:59:02;;;;;;;25.08;9.28;;;;;;;-1.50;78.40;99838.04;1757726;81;21147;-77
2020/12/27 08:01:35;;;;;;;18.45;9.68;;;;;;;-1.46;78.34;99832.13;1757721;81;21474;-76
2020/12/27 08:04:07;;;;;;;29.75;11.12;;;;;;;-1.42;78.30;99829.66;1757646;81;21166;-76
2020/12/27 08:06:41;;;;;;;29.05;13.98;;;;;;;-1.38;78.24;99825.89;1758044;81;21115;-76
2020/12/27 08:09:12;;;;;;;51.95;20.77;;;;;;;-1.34;78.19;99823.43;1756475;81;21591;-77
2020/12/27 08:11:43;;;;;;;80.32;36.40;;;;;;;-1.29;78.13;99821.30;1759071;81;21592;-76
2020/12/27 08:14:12;;;;;;;593.48;361.43;;;;;;;-1.26;78.09;99818.00;1755954;81;21568;-76
2020/12/27 08:16:41;;;;;;;464.80;244.30;;;;;;;-1.19;78.02;99815.77;1731239;81;21207;-77
2020/12/27 08:19:12;;;;;;;597.20;213.70;;;;;;;-1.14;77.98;99807.14;1729305;81;21178;-76
2020/12/27 08:21:43;;;;;;;250.13;87.02;;;;;;;-1.09;77.90;99802.42;1736909;81;21360;-76
2020/12/27 08:24:14;;;;;;;118.57;58.33;;;;;;;-1.03;77.83;99803.27;1759298;81;21187;-77
2020/12/27 08:26:44;;;;;;;24.82;14.30;;;;;;;-0.98;77.75;99793.30;1751280;81;21588;-76
2020/12/27 08:29:23;;;;;;;16.82;6.28;;;;;;;-0.92;77.67;99781.56;1732084;81;21111;-77
2020/12/27 08:31:51;;;;;;;165.73;53.17;;;;;;;-0.86;77.58;99771.47;1729102;83;21123;-76
2020/12/27 08:34:22;;;;;;;85.62;18.20;;;;;;;-0.79;77.49;99758.30;1728988;82;21263;-76
2020/12/27 08:36:52;;;;;;;40.40;17.73;;;;;;;-0.70;77.40;99756.28;1730598;81;21194;-77
2020/12/27 08:39:27;;;;;;;18.75;7.85;;;;;;;-0.64;77.29;99753.23;1743056;81;21130;-76
2020/12/27 08:42:04;;;;;;;21.15;7.70;;;;;;;-0.55;77.18;99742.05;1729047;81;21225;-76
2020/12/27 08:45:11;;;;;;;80.87;29.63;;;;;;;-0.48;77.06;99733.72;1729142;81;21140;-76
2020/12/27 08:47:48;;;;;;;33.73;7.97;;;;;;;-0.40;76.92;99736.60;1728831;82;22093;-76
2020/12/27 08:50:38;;;;;;;22.62;5.53;;;;;;;-0.33;76.74;99732.56;1747854;81;21151;-77
2020/12/27 08:53:05;;;;;;;15.53;3.90;;;;;;;-0.26;76.59;99729.83;1729220;82;21136;-77
2020/12/27 08:55:31;;;;;;;81.70;30.30;;;;;;;-0.19;76.41;99727.09;1668911;81;21159;-77
2020/12/27 08:57:57;;;;;;;84.60;30.40;;;;;;;-0.13;76.27;99722.69;1759172;81;21528;-77
2020/12/27 09:00:32;;;;;;;50.05;13.55;;;;;;;-0.08;76.12;99719.25;1757000;81;21243;-77
2020/12/27 09:03:01;;;;;;;31.62;8.93;;;;;;;-0.02;75.96;99714.83;1756061;81;21557;-77
2020/12/27 09:05:29;;;;;;;40.10;11.68;;;;;;;0.04;75.81;99709.57;1756585;81;21169;-77
2020/12/27 09:07:56;;;;;;;24.27;6.47;;;;;;;0.09;75.62;99704.34;1735590;81;21599;-77
2020/12/27 09:10:27;;;;;;;69.17;15.78;;;;;;;0.14;75.45;99699.55;1725860;82;21150;-77
2020/12/27 09:13:05;;;;;;;37.95;9.30;;;;;;;0.20;75.25;99691.23;1726307;83;21204;-76
2020/12/27 09:15:47;;;;;;;26.60;8.98;;;;;;;0.27;75.06;99692.41;1726020;83;21178;-76
2020/12/27 09:18:27;;;;;;;24.67;7.45;;;;;;;0.32;74.84;99683.67;1726167;83;21155;-76
2020/12/27 09:21:02;;;;;;;17.27;6.55;;;;;;;0.39;74.59;99677.45;1726233;83;21115;-76
2020/12/27 09:23:29;;;;;;;46.20;13.78;;;;;;;0.44;74.29;99681.87;1726381;81;21560;-76
2020/12/27 09:26:09;;;;;;;22.85;6.22;;;;;;;0.49;74.00;99672.66;1728221;81;21273;-76
2020/12/27 09:28:37;;;;;;;15.55;5.45;;;;;;;0.55;73.75;99678.38;1726459;81;21214;-77
2020/12/27 09:31:12;;;;;;;19.85;4.78;;;;;;;0.59;73.46;99671.93;1726259;83;21119;-77
2020/12/27 09:33:45;;;;;;;16.97;7.50;;;;;;;0.65;73.20;99668.80;1749551;81;21183;-78
2020/12/27 09:36:11;;;;;;;40.80;11.73;;;;;;;0.69;72.96;99662.34;1729563;81;21127;-77
2020/12/27 09:38:39;;;;;;;22.73;6.67;;;;;;;0.71;72.73;99652.08;1736644;80;21280;-77
2020/12/27 09:41:16;;;;;;;29.50;9.78;;;;;;;0.75;72.47;99659.22;1739048;81;21182;-77
2020/12/27 09:43:59;;;;;;;29.02;10.15;;;;;;;0.75;72.21;99653.97;1737897;80;21106;-75
2020/12/27 09:46:39;;;;;;;38.73;12.93;;;;;;;0.80;71.98;99647.88;1748136;81;21124;-76
2020/12/27 09:49:33;;;;;;;34.98;10.70;;;;;;;0.81;71.74;99646.92;1748271;81;21130;-76
2020/12/27 09:52:14;;;;;;;16.52;5.95;;;;;;;0.83;71.37;99641.06;1747827;81;21167;-76
2020/12/27 09:54:43;;;;;;;20.43;5.75;;;;;;;0.82;70.83;99632.34;1726130;83;21163;-75
2020/12/27 09:57:19;;;;;;;44.20;20.95;;;;;;;0.83;70.52;99620.90;1748586;81;21146;-76
2020/12/27 09:59:48;;;;;;;21.80;13.10;;;;;;;0.89;70.30;99624.80;1735590;81;21221;-76
2020/12/27 10:02:14;;;;;;;19.85;8.75;;;;;;;0.94;70.07;99620.00;1733671;81;21104;-75
2020/12/27 10:04:40;;;;;;;19.30;6.03;;;;;;;0.99;69.88;99608.62;1741999;81;21512;-76
2020/12/27 10:07:07;;;;;;;31.37;15.18;;;;;;;1.00;69.58;99611.61;1761867;81;21135;-75
2020/12/27 10:09:33;;;;;;;16.87;7.60;;;;;;;1.05;69.37;99600.25;1759830;80;21544;-76
2020/12/27 10:11:59;;;;;;;20.90;8.83;;;;;;;1.12;69.21;99601.41;1745568;81;21178;-76
2020/12/27 10:14:25;;;;;;;47.38;27.02;;;;;;;1.16;69.03;99602.78;1731570;82;21123;-73
2020/12/27 10:16:52;;;;;;;52.70;20.17;;;;;;;1.22;68.82;99600.97;1744542;81;21198;-79
2020/12/27 10:19:18;;;;;;;25.62;14.40;;;;;;;1.26;68.58;99597.13;1761779;81;21159;-79
2020/12/27 10:21:47;;;;;;;45.60;21.20;;;;;;;1.27;68.28;99595.30;1762017;80;21076;-79
2020/12/27 10:24:15;;;;;;;14.18;4.47;;;;;;;1.26;67.97;99581.37;1761714;81;21612;-79
2020/12/27 10:26:42;;;;;;;9.00;3.42;;;;;;;1.28;67.76;99584.68;1761984;81;21167;-79
2020/12/27 10:29:10;;;;;;;54.73;27.17;;;;;;;1.32;67.50;99569.02;1726850;81;21196;-79
2020/12/27 10:31:36;;;;;;;24.63;10.65;;;;;;;1.33;67.29;99572.00;1761787;81;21147;-79
2020/12/27 10:34:03;;;;;;;11.78;3.60;;;;;;;1.37;67.02;99569.44;1761985;81;21064;-79
2020/12/27 10:36:29;;;;;;;19.80;6.85;;;;;;;1.38;66.71;99567.17;1761930;81;21131;-79
2020/12/27 10:38:55;;;;;;;21.55;10.63;;;;;;;1.42;66.44;99557.23;1762081;81;21186;-79
2020/12/27 10:41:21;;;;;;;35.10;15.75;;;;;;;1.47;66.17;99551.11;1761652;81;21181;-79
2020/12/27 10:43:51;;;;;;;15.88;6.78;;;;;;;1.51;65.83;99544.12;1761683;81;21178;-79
2020/12/27 10:46:20;;;;;;;29.25;16.95;;;;;;;1.58;65.53;99537.04;1761469;81;21095;-78
2020/12/27 10:48:47;;;;;;;26.37;9.93;;;;;;;1.61;65.16;99519.69;1762218;81;21123;-79
2020/12/27 10:51:13;;;;;;;13.72;5.53;;;;;;;1.65;64.86;99520.61;1761973;81;21095;-79
2020/12/27 10:53:40;;;;;;;21.23;8.40;;;;;;;1.71;64.63;99523.16;1742583;80;21196;-79
2020/12/27 10:56:06;;;;;;;26.90;14.75;;;;;;;1.74;64.36;99509.75;1756302;81;21613;-79
2020/12/27 10:58:33;;;;;;;53.08;29.25;;;;;;;1.79;64.15;99499.67;1749015;81;21533;-79
2020/12/27 11:00:59;;;;;;;109.57;47.00;;;;;;;1.85;64.05;99493.86;1730095;81;21447;-79
2020/12/27 11:03:25;;;;;;;42.25;24.67;;;;;;;1.87;63.84;99487.48;1751729;81;21151;-79
2020/12/27 11:05:52;;;;;;;65.92;38.40;;;;;;;1.88;63.46;99480.44;1754914;81;21174;-79
2020/12/27 11:08:18;;;;;;;31.15;13.28;;;;;;;1.90;63.22;99470.64;1735354;81;21183;-79
2020/12/27 11:10:45;;;;;;;52.93;29.67;;;;;;;1.92;62.94;99460.31;1735625;81;21202;-79
2020/12/27 11:13:11;;;;;;;18.87;7.42;;;;;;;1.94;62.59;99466.73;1727047;83;21609;-79
2020/12/27 11:15:37;;;;;;;58.33;29.75;;;;;;;1.95;62.26;99440.32;1750456;80;21592;-79
2020/12/27 11:18:04;;;;;;;24.12;10.88;;;;;;;2.00;62.15;99439.91;1757139;81;21277;-79
2020/12/27 11:20:30;;;;;;;60.65;22.67;;;;;;;2.04;62.06;99434.73;1756882;81;21139;-79
2020/12/27 11:22:56;;;;;;;7.87;3.90;;;;;;;2.06;61.92;99426.68;1757093;80;21151;-79
2020/12/27 11:25:23;;;;;;;8.58;3.75;;;;;;;2.08;61.80;99428.19;1752788;81;21119;-79
2020/12/27 11:27:50;;;;;;;17.82;5.47;;;;;;;2.09;61.62;99408.83;1743856;81;21138;-79
2020/12/27 11:30:18;;;;;;;56.42;19.00;;;;;;;2.14;61.50;99424.19;1736459;81;22079;-79
2020/12/27 11:32:44;;;;;;;222.60;85.38;;;;;;;2.16;61.34;99418.29;1733699;81;21191;-79